Time;durP1;ratioP1;P1;durP2;ratioP2;P2;SDS_P1;SDS_P2;PMS_P1;PMS_P2;Temp;Humidity;BMP_temperature;BMP_pressure;BME280_temperature;BME280_humidity;BME280_pressure;Samples;Min_cycle;Max_cycle;Signal;HPM_P1;HPM_P2
2021/10/17 00:00:04;;;;;;;;;;;;;;;8.10;44.58;95910.16;5029000;28;20011;-68
2021/10/17 00:02:30;;;;;;;;;;;;;;;8.12;44.33;95907.31;5030145;28;19917;-68
2021/10/17 00:04:55;;;;;;;;;;;;;;;8.10;44.40;95912.81;5029281;28;20366;-69
2021/10/17 00:07:20;;;;;;;;;;;;;;;8.10;44.44;95910.16;5029789;28;19925;-68
2021/10/17 00:09:45;;;;;;;;;;;;;;;7.99;43.50;95905.91;5029029;28;19931;-68
2021/10/17 00:12:11;;;;;;;;;;;;;;;7.14;46.28;95907.94;5028891;28;19975;-68
2021/10/17 00:14:36;;;;;;;;;;;;;;;7.29;46.20;95915.38;5027926;28;19978;-67
2021/10/17 00:17:02;;;;;;;;;;;;;;;7.62;45.69;95915.69;5027441;28;19932;-68
2021/10/17 00:19:27;;;;;;;;;;;;;;;7.65;44.96;95910.09;5029177;28;19921;-68
2021/10/17 00:21:52;;;;;;;;;;;;;;;7.76;44.61;95901.06;5029101;28;19972;-68
2021/10/17 00:24:18;;;;;;;;;;;;;;;7.87;45.09;95910.63;5027138;28;19925;-68
2021/10/17 00:26:43;;;;;;;;;;;;;;;7.91;44.84;95905.84;5029433;28;20285;-68
2021/10/17 00:29:08;;;;;;;;;;;;;;;7.88;44.61;95909.66;5028784;28;19917;-68
2021/10/17 00:31:34;;;;;;;;;;;;;;;7.92;44.69;95908.34;5029020;28;19922;-68
2021/10/17 00:33:59;;;;;;;;;;;;;;;8.08;44.01;95900.66;5027362;28;19917;-68
2021/10/17 00:36:24;;;;;;;;;;;;;;;8.00;44.02;95901.44;5028748;28;20302;-68
2021/10/17 00:38:49;;;;;;;;;;;;;;;7.99;44.51;95902.44;5027275;28;19921;-68
2021/10/17 00:41:15;;;;;;;;;;;;;;;7.98;44.21;95900.75;5028684;28;20015;-69
2021/10/17 00:43:40;;;;;;;;;;;;;;;7.91;44.42;95903.19;5028879;28;19913;-68
2021/10/17 00:46:14;;;;;;;;;;;;;;;7.92;44.65;95894.25;5028552;28;19975;-68
2021/10/17 00:48:39;;;;;;;;;;;;;;;7.95;44.76;95896.59;5027445;28;19999;-68
2021/10/17 00:51:04;;;;;;;;;;;;;;;8.00;44.03;95888.19;5027281;28;20082;-68
2021/10/17 00:53:29;;;;;;;;;;;;;;;7.28;44.91;95909.25;5028196;28;19921;-68
2021/10/17 00:55:55;;;;;;;;;;;;;;;7.22;44.70;95901.91;5028858;28;19912;-68
2021/10/17 00:58:20;;;;;;;;;;;;;;;7.45;44.43;95903.28;5027045;28;19917;-68
2021/10/17 01:00:45;;;;;;;;;;;;;;;7.65;44.20;95903.97;5028177;28;19928;-68
2021/10/17 01:03:10;;;;;;;;;;;;;;;7.70;44.36;95900.84;5028328;28;19918;-68
2021/10/17 01:05:36;;;;;;;;;;;;;;;7.77;44.56;95896.63;5026683;28;19944;-68
2021/10/17 01:08:01;;;;;;;;;;;;;;;7.77;44.32;95896.63;5027864;28;19913;-68
2021/10/17 01:10:26;;;;;;;;;;;;;;;7.73;44.67;95890.78;5028400;28;19925;-68
2021/10/17 01:12:51;;;;;;;;;;;;;;;7.73;44.37;95888.13;5027815;28;20012;-68
2021/10/17 01:15:17;;;;;;;;;;;;;;;7.75;44.29;95893.28;5028289;28;19926;-68
2021/10/17 01:17:42;;;;;;;;;;;;;;;7.79;44.25;95892.84;5026097;28;19929;-68
2021/10/17 01:20:08;;;;;;;;;;;;;;;7.68;44.08;95893.03;5027770;28;19925;-68
2021/10/17 01:22:33;;;;;;;;;;;;;;;7.67;44.29;95888.72;5026162;28;19917;-67
2021/10/17 01:24:59;;;;;;;;;;;;;;;7.61;44.42;95891.97;5026534;28;19921;-68
2021/10/17 01:27:24;;;;;;;;;;;;;;;7.63;44.07;95893.53;5028129;28;19917;-68
2021/10/17 01:29:49;;;;;;;;;;;;;;;7.62;43.57;95888.38;5027364;28;19921;-68
2021/10/17 01:32:14;;;;;;;;;;;;;;;7.58;43.73;95887.00;5027352;28;19952;-68
2021/10/17 01:34:40;;;;;;;;;;;;;;;7.52;44.01;95886.63;5026403;28;20030;-68
2021/10/17 01:37:05;;;;;;;;;;;;;;;7.58;43.83;95881.72;5027400;28;19921;-68
2021/10/17 01:39:30;;;;;;;;;;;;;;;7.54;44.19;95883.81;5027740;28;19917;-68
2021/10/17 01:41:55;;;;;;;;;;;;;;;7.46;44.29;95881.94;5025950;28;20425;-68
2021/10/17 01:44:27;;;;;;;;;;;;;;;7.35;46.08;95880.34;5027112;28;20409;-68
2021/10/17 01:46:53;;;;;;;;;;;;;;;7.43;43.41;95879.59;5027480;28;20301;-68
2021/10/17 01:49:18;;;;;;;;;;;;;;;7.40;43.86;95874.59;5027214;28;19921;-68
2021/10/17 01:51:43;;;;;;;;;;;;;;;7.40;43.55;95874.59;5026332;28;19994;-67
2021/10/17 01:54:09;;;;;;;;;;;;;;;7.48;43.50;95871.19;5027227;28;20437;-68
2021/10/17 01:56:34;;;;;;;;;;;;;;;7.30;43.62;95874.66;5026967;28;19987;-67
2021/10/17 01:58:59;;;;;;;;;;;;;;;7.14;44.21;95864.72;5026531;28;19917;-67
2021/10/17 02:01:26;;;;;;;;;;;;;;;7.18;43.88;95863.47;5025543;28;20414;-68
2021/10/17 02:03:51;;;;;;;;;;;;;;;7.03;44.66;95865.78;5027337;28;19949;-68
2021/10/17 02:06:17;;;;;;;;;;;;;;;6.93;44.14;95873.78;5026666;28;19955;-68
2021/10/17 02:08:42;;;;;;;;;;;;;;;6.87;44.16;95872.56;5026659;28;19921;-67
2021/10/17 02:11:07;;;;;;;;;;;;;;;6.91;44.07;95875.78;5026904;28;19932;-67
2021/10/17 02:13:32;;;;;;;;;;;;;;;6.89;43.29;95875.91;5026827;28;20031;-67
2021/10/17 02:15:58;;;;;;;;;;;;;;;6.77;43.91;95874.47;5026913;28;19979;-67
2021/10/17 02:18:23;;;;;;;;;;;;;;;6.72;43.71;95877.53;5026509;28;20298;-68
2021/10/17 02:20:48;;;;;;;;;;;;;;;6.68;43.41;95865.59;5026843;28;20034;-68
2021/10/17 02:23:13;;;;;;;;;;;;;;;6.65;43.82;95860.56;5025410;28;19917;-67
2021/10/17 02:25:38;;;;;;;;;;;;;;;6.61;43.92;95861.84;5026759;28;19920;-67
2021/10/17 02:28:04;;;;;;;;;;;;;;;6.55;44.09;95857.13;5026356;28;20447;-68
2021/10/17 02:30:29;;;;;;;;;;;;;;;6.58;43.87;95859.50;5026513;28;19929;-67
2021/10/17 02:32:54;;;;;;;;;;;;;;;6.50;43.84;95863.69;5026491;28;20009;-68
2021/10/17 02:35:19;;;;;;;;;;;;;;;6.41;43.98;95856.63;5025317;28;20241;-67
2021/10/17 02:37:45;;;;;;;;;;;;;;;6.37;44.37;95847.31;5026328;28;19983;-68
2021/10/17 02:40:10;;;;;;;;;;;;;;;6.35;44.14;95849.25;5026218;28;20424;-67
2021/10/17 02:42:35;;;;;;;;;;;;;;;6.31;44.11;95847.88;5026558;28;19924;-67
2021/10/17 02:45:01;;;;;;;;;;;;;;;6.37;43.51;95850.78;5025054;28;19925;-67
2021/10/17 02:47:26;;;;;;;;;;;;;;;6.36;43.36;95850.94;5026928;28;19924;-67
2021/10/17 02:49:52;;;;;;;;;;;;;;;6.29;43.06;95849.84;5024828;28;20016;-67
2021/10/17 02:52:17;;;;;;;;;;;;;;;6.18;43.19;95846.41;5026173;28;19937;-68
2021/10/17 02:54:42;;;;;;;;;;;;;;;6.13;43.01;95851.31;5026552;28;19921;-67
2021/10/17 02:57:08;;;;;;;;;;;;;;;6.08;43.16;95848.25;5026128;28;19925;-67
2021/10/17 02:59:33;;;;;;;;;;;;;;;6.03;43.32;95840.75;5027022;28;19917;-67
2021/10/17 03:01:58;;;;;;;;;;;;;;;5.98;43.25;95856.19;5024724;28;20179;-67
2021/10/17 03:04:24;;;;;;;;;;;;;;;5.79;43.20;95849.16;5026171;28;19951;-67
2021/10/17 03:06:49;;;;;;;;;;;;;;;5.59;43.44;95850.03;5026445;28;20358;-67
2021/10/17 03:09:14;;;;;;;;;;;;;;;5.49;43.95;95849.19;5025994;28;20027;-67
2021/10/17 03:11:39;;;;;;;;;;;;;;;5.37;43.58;95842.41;5028935;28;19936;-67
2021/10/17 03:14:05;;;;;;;;;;;;;;;5.24;44.00;95842.66;5029781;28;20303;-67
2021/10/17 03:16:30;;;;;;;;;;;;;;;5.10;43.45;95839.44;5029751;28;19928;-67
2021/10/17 03:18:55;;;;;;;;;;;;;;;4.94;43.66;95840.78;5030139;28;19929;-67
2021/10/17 03:21:21;;;;;;;;;;;;;;;4.91;42.92;95841.09;5029558;28;19917;-67
2021/10/17 03:23:46;;;;;;;;;;;;;;;4.85;43.00;95841.63;5028545;28;19917;-67
2021/10/17 03:26:11;;;;;;;;;;;;;;;4.60;43.49;95838.53;5028230;28;19928;-67
2021/10/17 03:28:36;;;;;;;;;;;;;;;4.37;43.66;95836.09;5025163;28;19921;-67
2021/10/17 03:31:05;;;;;;;;;;;;;;;4.30;43.88;95835.81;5027126;28;20129;-67
2021/10/17 03:33:31;;;;;;;;;;;;;;;4.19;43.85;95839.34;5012337;28;19927;-67
2021/10/17 03:35:56;;;;;;;;;;;;;;;4.03;44.61;95839.84;5029905;28;19921;-67
2021/10/17 03:38:21;;;;;;;;;;;;;;;3.94;44.85;95841.47;5029450;28;19949;-67
2021/10/17 03:40:46;;;;;;;;;;;;;;;3.81;45.25;95852.19;5029563;28;20375;-67
2021/10/17 03:43:12;;;;;;;;;;;;;;;3.74;44.77;95852.84;5030269;28;19917;-67
2021/10/17 03:45:39;;;;;;;;;;;;;;;3.68;44.48;95852.38;5029422;28;19956;-67
2021/10/17 03:48:04;;;;;;;;;;;;;;;3.65;45.43;95851.81;5029566;28;19921;-67
2021/10/17 03:50:29;;;;;;;;;;;;;;;3.52;44.89;95849.38;5028543;28;19927;-67
2021/10/17 03:52:54;;;;;;;;;;;;;;;3.45;44.91;95856.09;5029141;28;19917;-67
2021/10/17 03:55:20;;;;;;;;;;;;;;;3.39;45.10;95842.47;5029404;28;19924;-67
2021/10/17 03:57:45;;;;;;;;;;;;;;;3.26;45.58;95853.16;5029216;28;19964;-67
2021/10/17 04:00:10;;;;;;;;;;;;;;;3.25;45.56;95853.28;5027725;28;19921;-67
2021/10/17 04:02:36;;;;;;;;;;;;;;;3.24;45.23;95846.38;5028199;28;20029;-67
2021/10/17 04:05:01;;;;;;;;;;;;;;;3.16;45.21;95845.19;5029018;28;19936;-67
2021/10/17 04:07:26;;;;;;;;;;;;;;;3.08;45.78;95845.00;5029500;28;19943;-67
2021/10/17 04:09:52;;;;;;;;;;;;;;;3.03;45.92;95849.81;5028702;28;20513;-68
2021/10/17 04:12:17;;;;;;;;;;;;;;;2.99;46.04;95848.38;5028479;28;20043;-67
2021/10/17 04:14:42;;;;;;;;;;;;;;;2.94;46.00;95853.16;5028083;28;19965;-67
2021/10/17 04:17:07;;;;;;;;;;;;;;;2.84;45.72;95845.19;5028884;28;20362;-67
2021/10/17 04:19:33;;;;;;;;;;;;;;;2.85;45.34;95846.84;5028984;28;19977;-67
2021/10/17 04:22:00;;;;;;;;;;;;;;;2.81;45.00;95848.91;5027264;28;20210;-68
2021/10/17 04:24:25;;;;;;;;;;;;;;;2.72;45.21;95842.56;5027323;28;20445;-67
2021/10/17 04:26:50;;;;;;;;;;;;;;;2.64;45.31;95843.22;5029544;28;19921;-70
2021/10/17 04:29:16;;;;;;;;;;;;;;;2.60;46.01;95840.94;5023983;28;20405;-69
2021/10/17 04:31:41;;;;;;;;;;;;;;;2.58;46.26;95842.88;5019704;28;19985;-67
2021/10/17 04:34:06;;;;;;;;;;;;;;;2.57;46.04;95843.81;5028728;28;20470;-68
2021/10/17 04:36:31;;;;;;;;;;;;;;;2.56;45.87;95844.78;5027333;28;19999;-68
2021/10/17 04:38:57;;;;;;;;;;;;;;;2.51;45.58;95845.13;5027419;28;19965;-69
2021/10/17 04:41:22;;;;;;;;;;;;;;;2.49;45.80;95845.25;5028432;28;19993;-69
2021/10/17 04:43:47;;;;;;;;;;;;;;;2.47;46.19;95839.28;5028698;28;20448;-69
2021/10/17 04:46:13;;;;;;;;;;;;;;;2.42;46.19;95845.88;5028189;28;20051;-70
2021/10/17 04:48:38;;;;;;;;;;;;;;;2.36;46.23;95845.41;5028223;28;20028;-69
2021/10/17 04:51:03;;;;;;;;;;;;;;;2.29;46.10;95841.56;5028585;28;20129;-69
2021/10/17 04:53:28;;;;;;;;;;;;;;;2.27;45.95;95839.06;5028224;28;20435;-69
2021/10/17 04:55:54;;;;;;;;;;;;;;;2.20;45.99;95840.50;5028418;28;19925;-69
2021/10/17 04:58:19;;;;;;;;;;;;;;;2.18;45.66;95841.59;5027858;28;19921;-70
2021/10/17 05:00:44;;;;;;;;;;;;;;;2.12;46.19;95841.09;5028436;28;20232;-70
2021/10/17 05:03:09;;;;;;;;;;;;;;;2.11;46.39;95835.97;5027148;28;20532;-70
2021/10/17 05:05:35;;;;;;;;;;;;;;;2.10;46.29;95837.75;5027967;28;19994;-69
2021/10/17 05:08:00;;;;;;;;;;;;;;;2.09;46.41;95845.75;5028123;28;20349;-70
2021/10/17 05:10:25;;;;;;;;;;;;;;;1.99;45.78;95840.38;5026638;28;20024;-68
2021/10/17 05:12:51;;;;;;;;;;;;;;;1.98;46.17;95849.22;5027766;28;19993;-69
2021/10/17 05:15:16;;;;;;;;;;;;;;;1.93;45.81;95846.09;5028212;28;19976;-70
2021/10/17 05:17:41;;;;;;;;;;;;;;;1.86;46.05;95849.19;5027461;28;20005;-69
2021/10/17 05:20:07;;;;;;;;;;;;;;;1.91;46.74;95861.16;5026287;28;19977;-69
2021/10/17 05:22:32;;;;;;;;;;;;;;;1.92;47.13;95852.31;5027700;28;20016;-70
2021/10/17 05:24:57;;;;;;;;;;;;;;;1.89;47.04;95861.25;5026381;28;20509;-70
2021/10/17 05:27:22;;;;;;;;;;;;;;;1.93;46.95;95856.59;5028105;28;20013;-70
2021/10/17 05:29:48;;;;;;;;;;;;;;;1.86;47.17;95859.72;5027216;28;19990;-68
2021/10/17 05:32:13;;;;;;;;;;;;;;;1.79;47.32;95855.03;5026093;28;19976;-70
2021/10/17 05:34:38;;;;;;;;;;;;;;;1.80;47.29;95860.16;5027472;28;19981;-70
2021/10/17 05:37:04;;;;;;;;;;;;;;;1.89;46.85;95861.25;5027223;28;20197;-70
2021/10/17 05:39:29;;;;;;;;;;;;;;;1.87;47.23;95866.63;5026943;28;20518;-70
2021/10/17 05:41:54;;;;;;;;;;;;;;;1.87;46.63;95871.88;5027251;28;19997;-68
2021/10/17 05:44:19;;;;;;;;;;;;;;;1.82;47.14;95868.78;5027133;28;20283;-70
2021/10/17 05:46:45;;;;;;;;;;;;;;;1.84;46.92;95874.72;5027499;28;19969;-69
2021/10/17 05:49:10;;;;;;;;;;;;;;;1.78;47.48;95872.59;5025820;28;19985;-70
2021/10/17 05:51:35;;;;;;;;;;;;;;;1.86;46.89;95872.84;5027377;28;19995;-68
2021/10/17 05:54:00;;;;;;;;;;;;;;;1.98;46.86;95878.91;5027012;28;19990;-71
2021/10/17 05:56:26;;;;;;;;;;;;;;;2.01;46.90;95880.50;5026907;28;20097;-68
2021/10/17 05:58:51;;;;;;;;;;;;;;;2.05;47.30;95876.69;5027327;28;19973;-70
2021/10/17 06:01:16;;;;;;;;;;;;;;;2.11;47.24;95883.25;5026795;28;19993;-68
2021/10/17 06:03:41;;;;;;;;;;;;;;;2.17;46.83;95885.41;5027200;28;20399;-70
2021/10/17 06:06:07;;;;;;;;;;;;;;;2.27;47.22;95885.50;5026920;28;20059;-70
2021/10/17 06:08:34;;;;;;;;;;;;;;;2.44;47.29;95889.47;5025542;28;19992;-68
2021/10/17 06:10:59;;;;;;;;;;;;;;;2.63;46.57;95894.09;5025529;28;19993;-70
2021/10/17 06:13:25;;;;;;;;;;;;;;;2.81;46.37;95893.59;5025883;28;19989;-68
2021/10/17 06:15:50;;;;;;;;;;;;;;;2.95;46.23;95897.75;5027980;28;19973;-69
2021/10/17 06:18:15;;;;;;;;;;;;;;;3.11;46.53;95897.38;5025539;28;20095;-69
2021/10/17 06:20:41;;;;;;;;;;;;;;;3.23;45.45;95897.34;5025793;28;20000;-69
2021/10/17 06:23:06;;;;;;;;;;;;;;;3.35;46.14;95908.66;5026077;28;19966;-70
2021/10/17 06:25:31;;;;;;;;;;;;;;;3.48;45.90;95900.63;5027002;28;20070;-70
2021/10/17 06:27:56;;;;;;;;;;;;;;;3.60;45.23;95904.88;5027181;28;19976;-69
2021/10/17 06:30:22;;;;;;;;;;;;;;;3.77;46.07;95894.72;5026897;28;20035;-70
2021/10/17 06:32:47;;;;;;;;;;;;;;;3.94;45.67;95909.09;5027076;28;20017;-70
2021/10/17 06:35:13;;;;;;;;;;;;;;;4.09;45.17;95903.53;5026157;28;19973;-69
2021/10/17 06:37:39;;;;;;;;;;;;;;;4.22;44.84;95906.78;5025454;28;20064;-70
2021/10/17 06:40:04;;;;;;;;;;;;;;;4.28;44.81;95902.78;5027146;28;20036;-70
2021/10/17 06:42:30;;;;;;;;;;;;;;;4.40;44.77;95896.47;5025882;28;20012;-70
2021/10/17 06:44:55;;;;;;;;;;;;;;;4.52;44.36;95910.38;5023084;28;20408;-68
2021/10/17 06:47:20;;;;;;;;;;;;;;;4.63;44.86;95903.34;5025565;28;19978;-69
2021/10/17 06:49:45;;;;;;;;;;;;;;;4.75;44.80;95904.91;5025827;28;20036;-71
2021/10/17 06:52:11;;;;;;;;;;;;;;;4.84;44.62;95911.19;5026189;28;20358;-68
2021/10/17 06:54:36;;;;;;;;;;;;;;;4.92;44.82;95911.34;5022187;28;19969;-68
2021/10/17 06:57:01;;;;;;;;;;;;;;;5.01;44.98;95899.16;5026613;28;20224;-69
2021/10/17 06:59:26;;;;;;;;;;;;;;;5.10;45.41;95910.72;5027064;28;20069;-70
2021/10/17 07:01:52;;;;;;;;;;;;;;;5.22;44.73;95914.94;5026793;28;20302;-70
2021/10/17 07:04:17;;;;;;;;;;;;;;;5.36;44.86;95910.19;5026670;28;19928;-71
2021/10/17 07:06:42;;;;;;;;;;;;;;;5.41;44.69;95909.78;5026756;28;20362;-69
2021/10/17 07:09:08;;;;;;;;;;;;;;;5.64;44.73;95901.59;5026542;28;19924;-71
2021/10/17 07:11:33;;;;;;;;;;;;;;;5.71;43.98;95911.47;5026475;28;20413;-71
2021/10/17 07:13:58;;;;;;;;;;;;;;;5.69;44.23;95908.13;5025234;28;20008;-71
2021/10/17 07:16:23;;;;;;;;;;;;;;;5.68;44.06;95905.63;5024743;28;20123;-71
2021/10/17 07:18:49;;;;;;;;;;;;;;;5.73;44.12;95906.03;5026650;28;20009;-71
2021/10/17 07:21:14;;;;;;;;;;;;;;;5.84;44.09;95907.69;5024099;28;19957;-71
2021/10/17 07:23:39;;;;;;;;;;;;;;;5.97;44.15;95913.53;5026196;28;20490;-70
2021/10/17 07:26:04;;;;;;;;;;;;;;;6.11;44.36;95911.41;5025829;28;20021;-71
2021/10/17 07:28:30;;;;;;;;;;;;;;;6.27;44.69;95917.91;5025829;28;19993;-71
2021/10/17 07:30:55;;;;;;;;;;;;;;;6.34;44.14;95911.06;5024632;28;19986;-71
2021/10/17 07:33:20;;;;;;;;;;;;;;;6.50;44.34;95919.25;5024333;28;19997;-71
2021/10/17 07:35:46;;;;;;;;;;;;;;;6.57;44.19;95921.31;5024724;28;20445;-71
2021/10/17 07:38:11;;;;;;;;;;;;;;;6.61;44.12;95912.97;5025154;28;20344;-71
2021/10/17 07:40:36;;;;;;;;;;;;;;;6.64;44.03;95917.13;5024422;28;19993;-70
2021/10/17 07:43:01;;;;;;;;;;;;;;;6.72;43.72;95919.03;5025038;28;19996;-70
2021/10/17 07:45:27;;;;;;;;;;;;;;;6.85;43.93;95916.06;5024533;28;20485;-71
2021/10/17 07:47:52;;;;;;;;;;;;;;;6.92;43.69;95909.19;5007189;28;19984;-71
2021/10/17 07:50:17;;;;;;;;;;;;;;;7.05;43.78;95913.28;5024570;28;19997;-71
2021/10/17 07:52:42;;;;;;;;;;;;;;;7.18;43.70;95913.78;5024649;28;20004;-71
2021/10/17 07:55:08;;;;;;;;;;;;;;;7.32;43.45;95915.09;5025753;28;20465;-74
2021/10/17 07:57:51;;;;;;;;;;;;;;;7.51;43.25;95921.19;5026698;28;20039;-70
2021/10/17 08:00:21;;;;;;;;;;;;;;;7.77;42.97;95928.44;5027808;28;20501;-71
2021/10/17 08:02:46;;;;;;;;;;;;;;;8.03;42.74;95925.81;5028132;28;20432;-71
2021/10/17 08:05:12;;;;;;;;;;;;;;;8.25;43.05;95928.97;5027515;28;19917;-70
2021/10/17 08:07:37;;;;;;;;;;;;;;;8.50;43.10;95917.69;5029192;28;19924;-69
2021/10/17 08:10:02;;;;;;;;;;;;;;;8.73;42.61;95914.44;5028585;28;20311;-71
2021/10/17 08:12:28;;;;;;;;;;;;;;;8.95;41.80;95919.22;5027249;28;20238;-72
2021/10/17 08:14:53;;;;;;;;;;;;;;;9.25;40.77;95916.16;5028860;28;20224;-70
2021/10/17 08:17:18;;;;;;;;;;;;;;;9.43;40.36;95918.72;5028616;28;19933;-71
2021/10/17 08:19:43;;;;;;;;;;;;;;;9.68;40.16;95918.75;5028622;28;19928;-70
2021/10/17 08:22:09;;;;;;;;;;;;;;;9.87;39.25;95921.25;5027111;28;20409;-68
2021/10/17 08:24:34;;;;;;;;;;;;;;;10.04;38.80;95920.25;5028788;28;19921;-68
2021/10/17 08:26:59;;;;;;;;;;;;;;;10.19;37.71;95924.91;5028851;28;19925;-69
2021/10/17 08:29:24;;;;;;;;;;;;;;;10.36;38.13;95917.72;5028398;28;19993;-71
2021/10/17 08:31:50;;;;;;;;;;;;;;;10.42;39.03;95921.56;5029001;28;20088;-71
2021/10/17 08:34:15;;;;;;;;;;;;;;;10.68;36.79;95915.16;5028442;28;19993;-71
2021/10/17 08:36:40;;;;;;;;;;;;;;;10.90;35.12;95915.41;5028952;28;19984;-72
2021/10/17 08:39:06;;;;;;;;;;;;;;;11.00;33.56;95918.72;5027747;28;20297;-71
2021/10/17 08:41:31;;;;;;;;;;;;;;;11.17;34.88;95921.31;5028714;28;20096;-70
2021/10/17 08:43:56;;;;;;;;;;;;;;;11.35;33.42;95921.91;5026938;28;19913;-71
2021/10/17 08:46:21;;;;;;;;;;;;;;;11.56;33.24;95922.28;5027687;28;19985;-68
2021/10/17 08:48:49;;;;;;;;;;;;;;;11.69;32.00;95922.50;5026974;28;19921;-69
2021/10/17 08:51:15;;;;;;;;;;;;;;;11.51;30.26;95923.63;5027198;28;19928;-69
2021/10/17 08:53:40;;;;;;;;;;;;;;;11.77;31.77;95919.78;5026549;28;19917;-72
2021/10/17 08:56:05;;;;;;;;;;;;;;;11.60;31.76;95926.25;5026688;28;19965;-72
2021/10/17 08:58:30;;;;;;;;;;;;;;;11.79;30.77;95932.13;5010653;28;20275;-72
2021/10/17 09:01:05;;;;;;;;;;;;;;;11.73;30.49;95920.34;5028045;28;20004;-72
2021/10/17 09:03:31;;;;;;;;;;;;;;;11.95;31.13;95920.47;5026929;28;19940;-70
2021/10/17 09:05:57;;;;;;;;;;;;;;;10.99;30.01;95915.19;5028084;28;19960;-70
2021/10/17 09:08:28;;;;;;;;;;;;;;;10.93;32.00;95918.56;5027374;28;20030;-72
2021/10/17 09:10:53;;;;;;;;;;;;;;;11.48;30.45;95913.31;5026835;28;20012;-72
2021/10/17 09:13:18;;;;;;;;;;;;;;;12.01;28.16;95923.25;5027522;28;20071;-72
2021/10/17 09:15:44;;;;;;;;;;;;;;;11.08;30.29;95913.34;5026814;28;19913;-72
2021/10/17 09:18:10;;;;;;;;;;;;;;;11.83;28.63;95912.09;5026264;28;20014;-72
2021/10/17 09:20:36;;;;;;;;;;;;;;;11.84;29.83;95911.91;5027627;28;19976;-72
2021/10/17 09:23:05;;;;;;;;;;;;;;;11.83;29.46;95922.75;5027913;28;19924;-72
2021/10/17 09:25:31;;;;;;;;;;;;;;;12.58;28.17;95925.59;5009953;28;19921;-72
2021/10/17 09:27:56;;;;;;;;;;;;;;;12.51;27.45;95919.34;5027812;28;19921;-72
2021/10/17 09:30:21;;;;;;;;;;;;;;;12.51;28.18;95920.16;5006840;28;19924;-71
2021/10/17 09:32:46;;;;;;;;;;;;;;;11.07;28.34;95925.00;5027030;28;20022;-73
2021/10/17 09:35:12;;;;;;;;;;;;;;;12.34;27.78;95919.50;5027877;28;19917;-73
2021/10/17 09:37:40;;;;;;;;;;;;;;;12.66;26.99;95925.53;5027536;28;19917;-73
2021/10/17 09:40:17;;;;;;;;;;;;;;;12.01;28.29;95925.94;5025908;28;19917;-73
2021/10/17 09:42:42;;;;;;;;;;;;;;;12.78;27.81;95919.72;5026691;28;19917;-73
2021/10/17 09:45:23;;;;;;;;;;;;;;;13.11;26.65;95924.69;5026289;28;19917;-70
2021/10/17 09:47:48;;;;;;;;;;;;;;;13.43;27.02;95917.25;5009821;28;20023;-72
2021/10/17 09:50:18;;;;;;;;;;;;;;;13.72;27.67;95924.53;5027331;28;19964;-73
2021/10/17 09:52:52;;;;;;;;;;;;;;;12.78;25.85;95920.53;5009430;28;20494;-73
2021/10/17 09:55:18;;;;;;;;;;;;;;;13.00;26.28;95914.47;5027321;28;20026;-73
2021/10/17 09:57:43;;;;;;;;;;;;;;;13.43;26.53;95917.25;5026823;28;20044;-73
2021/10/17 10:00:08;;;;;;;;;;;;;;;13.92;26.31;95920.25;5026891;28;19917;-73
2021/10/17 10:02:34;;;;;;;;;;;;;;;14.15;25.43;95913.03;5027313;28;20600;-73
2021/10/17 10:04:59;;;;;;;;;;;;;;;14.40;25.71;95915.25;5008920;28;19940;-73
2021/10/17 10:07:24;;;;;;;;;;;;;;;14.20;24.83;95910.56;5026012;28;19966;-73
2021/10/17 10:09:50;;;;;;;;;;;;;;;14.50;25.71;95907.72;5025555;28;19927;-70
2021/10/17 10:12:18;;;;;;;;;;;;;;;14.76;26.82;95919.66;5008840;28;20321;-71
2021/10/17 10:14:44;;;;;;;;;;;;;;;14.90;25.91;95915.19;5025733;28;19990;-72
2021/10/17 10:17:09;;;;;;;;;;;;;;;15.21;25.22;95911.22;5025235;28;20279;-72
2021/10/17 10:19:35;;;;;;;;;;;;;;;15.27;25.51;95919.47;5026592;28;20321;-72
2021/10/17 10:22:00;;;;;;;;;;;;;;;15.05;25.15;95924.94;5024892;28;19966;-72
2021/10/17 10:24:26;;;;;;;;;;;;;;;15.08;23.44;95917.34;5025417;28;19956;-72
2021/10/17 10:26:54;;;;;;;;;;;;;;;14.58;24.55;95922.78;5027330;28;19924;-72
2021/10/17 10:29:26;;;;;;;;;;;;;;;14.56;26.16;95927.53;5021639;28;19925;-72
2021/10/17 10:31:53;;;;;;;;;;;;;;;14.56;24.14;95930.22;5019432;28;20031;-72
2021/10/17 10:34:21;;;;;;;;;;;;;;;14.90;25.26;95917.88;5024907;28;19917;-72
2021/10/17 10:36:46;;;;;;;;;;;;;;;15.26;24.80;95918.63;5026925;28;19917;-72
2021/10/17 10:39:12;;;;;;;;;;;;;;;15.48;25.76;95910.47;5025837;28;20302;-73
2021/10/17 10:41:50;;;;;;;;;;;;;;;15.23;27.78;95909.13;5026577;28;20007;-73
2021/10/17 10:44:16;;;;;;;;;;;;;;;15.55;22.98;95910.47;5026614;28;19920;-72
2021/10/17 10:46:41;;;;;;;;;;;;;;;15.76;24.10;95912.19;5009247;28;19914;-73
2021/10/17 10:49:07;;;;;;;;;;;;;;;15.76;26.75;95914.88;5026517;28;19921;-73
2021/10/17 10:51:39;;;;;;;;;;;;;;;16.16;23.43;95916.78;5025508;28;19924;-72
2021/10/17 10:54:04;;;;;;;;;;;;;;;16.11;21.37;95908.50;5026827;28;19917;-73
2021/10/17 10:56:43;;;;;;;;;;;;;;;16.12;22.32;95912.84;5026123;28;20145;-72
2021/10/17 10:59:08;;;;;;;;;;;;;;;15.96;23.88;95909.53;5026726;28;20051;-72
2021/10/17 11:01:53;;;;;;;;;;;;;;;15.84;22.71;95903.94;5024836;28;20008;-73
2021/10/17 11:04:39;;;;;;;;;;;;;;;16.15;23.22;95901.72;5024899;28;19917;-73
2021/10/17 11:07:17;;;;;;;;;;;;;;;16.56;23.75;95897.16;5015439;28;19913;-73
2021/10/17 11:09:42;;;;;;;;;;;;;;;16.75;22.78;95899.97;5026067;28;20370;-73
2021/10/17 11:12:07;;;;;;;;;;;;;;;16.58;24.51;95905.81;5025936;28;19975;-73
2021/10/17 11:14:33;;;;;;;;;;;;;;;16.76;23.38;95898.97;5024919;28;20293;-73
2021/10/17 11:17:06;;;;;;;;;;;;;;;16.96;25.07;95898.09;5026234;28;20382;-73
2021/10/17 11:19:31;;;;;;;;;;;;;;;17.48;23.07;95897.25;5026252;28;19925;-73
2021/10/17 11:22:02;;;;;;;;;;;;;;;17.84;20.10;95889.59;5026163;28;19917;-73
2021/10/17 11:24:27;;;;;;;;;;;;;;;17.83;21.24;95896.00;5026031;28;19983;-73
2021/10/17 11:27:09;;;;;;;;;;;;;;;17.95;21.45;95891.59;5026824;28;19913;-73
2021/10/17 11:29:41;;;;;;;;;;;;;;;17.97;20.67;95888.66;5021249;28;19924;-73
2021/10/17 11:32:07;;;;;;;;;;;;;;;18.13;22.20;95887.31;5020731;28;19917;-73
2021/10/17 11:34:32;;;;;;;;;;;;;;;18.49;21.78;95888.44;5030471;28;19924;-74
2021/10/17 11:37:16;;;;;;;;;;;;;;;18.78;20.91;95891.50;5028312;28;19922;-71
2021/10/17 11:39:57;;;;;;;;;;;;;;;18.66;22.67;95885.22;5030118;28;19978;-72
2021/10/17 11:42:23;;;;;;;;;;;;;;;18.98;19.79;95884.22;5029634;28;20385;-73
2021/10/17 11:44:49;;;;;;;;;;;;;;;19.43;18.96;95885.75;5029809;28;19983;-73
2021/10/17 11:47:17;;;;;;;;;;;;;;;19.46;19.91;95890.72;5030201;28;20242;-73
2021/10/17 11:49:43;;;;;;;;;;;;;;;19.63;19.67;95884.66;5029809;28;19971;-73
2021/10/17 11:52:11;;;;;;;;;;;;;;;19.70;19.92;95885.41;5027997;28;19920;-71
2021/10/17 11:54:40;;;;;;;;;;;;;;;19.88;19.13;95886.41;5030041;28;20002;-72
2021/10/17 11:57:06;;;;;;;;;;;;;;;19.67;19.49;95881.28;5027976;28;19943;-72
2021/10/17 11:59:31;;;;;;;;;;;;;;;19.65;20.70;95885.28;5028723;28;20010;-73
2021/10/17 12:01:56;;;;;;;;;;;;;;;19.98;18.99;95883.97;5029701;28;20394;-73
2021/10/17 12:04:39;;;;;;;;;;;;;;;19.71;18.50;95882.47;5028683;28;19963;-73
2021/10/17 12:07:04;;;;;;;;;;;;;;;20.05;18.35;95876.56;5030075;28;20390;-73
2021/10/17 12:09:29;;;;;;;;;;;;;;;19.52;18.98;95878.19;5029442;28;19932;-72
2021/10/17 12:11:58;;;;;;;;;;;;;;;19.57;19.54;95875.59;5029595;28;20383;-72
2021/10/17 12:14:27;;;;;;;;;;;;;;;19.91;19.83;95875.09;5028053;28;19967;-72
2021/10/17 12:16:55;;;;;;;;;;;;;;;20.54;18.87;95872.00;5027954;28;19921;-72
2021/10/17 12:19:24;;;;;;;;;;;;;;;18.98;19.16;95876.97;5028559;28;21410;-73
2021/10/17 12:21:49;;;;;;;;;;;;;;;19.81;19.26;95867.56;5028929;28;19928;-72
2021/10/17 12:24:14;;;;;;;;;;;;;;;20.47;18.77;95864.84;5027599;28;20008;-73
2021/10/17 12:26:47;;;;;;;;;;;;;;;20.78;18.53;95870.13;5028404;28;19971;-72
2021/10/17 12:29:16;;;;;;;;;;;;;;;21.33;17.64;95862.59;5028517;28;19917;-73
2021/10/17 12:31:42;;;;;;;;;;;;;;;21.11;17.98;95868.63;5028116;28;19921;-72
2021/10/17 12:34:10;;;;;;;;;;;;;;;21.30;18.11;95862.25;5029077;28;19921;-72
2021/10/17 12:36:36;;;;;;;;;;;;;;;21.04;17.95;95859.03;5029157;28;19932;-72
2021/10/17 12:39:03;;;;;;;;;;;;;;;20.91;19.90;95862.81;5028023;28;20252;-71
2021/10/17 12:41:29;;;;;;;;;;;;;;;21.08;19.49;95863.69;5028959;28;20019;-72
2021/10/17 12:43:54;;;;;;;;;;;;;;;20.83;18.70;95862.13;5028320;28;20332;-72
2021/10/17 12:46:20;;;;;;;;;;;;;;;20.68;18.16;95859.94;5027197;28;19975;-72